createdAt,value
2019-05-23T00:02:52.077Z,100385.20
2019-05-23T00:05:45.329Z,100384.56
2019-05-23T00:08:33.508Z,100390.33
2019-05-23T00:11:23.604Z,100389.87
2019-05-23T00:14:30.870Z,100389.70
2019-05-23T00:17:01.537Z,100387.61
2019-05-23T00:19:29.641Z,100394.51
2019-05-23T00:21:58.098Z,100396.50
2019-05-23T00:24:27.669Z,100397.32
2019-05-23T00:26:57.996Z,100393.23
2019-05-23T00:29:28.515Z,100395.55
2019-05-23T00:32:01.406Z,100393.59
2019-05-23T00:34:31.180Z,100389.66
2019-05-23T00:37:01.820Z,100392.28
2019-05-23T00:39:30.768Z,100388.17
2019-05-23T00:41:58.883Z,100384.91
2019-05-23T00:44:27.769Z,100398.36
2019-05-23T00:46:56.635Z,100387.85
2019-05-23T00:49:26.060Z,100388.52
2019-05-23T00:51:54.837Z,100387.86
2019-05-23T00:54:24.266Z,100385.72
2019-05-23T00:56:52.508Z,100388.84
2019-05-23T00:59:26.977Z,100381.33
2019-05-23T01:01:51.989Z,100389.37
2019-05-23T01:04:21.427Z,100379.84
2019-05-23T01:06:50.163Z,100377.88
2019-05-23T01:09:18.773Z,100380.37
2019-05-23T01:11:47.409Z,100379.55
2019-05-23T01:14:16.253Z,100372.98
2019-05-23T01:16:44.701Z,100370.22
2019-05-23T01:19:15.847Z,100372.17
2019-05-23T01:22:05.031Z,100365.92
2019-05-23T01:24:40.581Z,100365.42
2019-05-23T01:27:09.672Z,100361.84
2019-05-23T01:29:42.461Z,100361.31
2019-05-23T01:32:20.037Z,100354.93
2019-05-23T01:34:49.190Z,100355.11
2019-05-23T01:37:18.294Z,100351.98
2019-05-23T01:39:46.884Z,100360.86
2019-05-23T01:42:16.947Z,100354.93
2019-05-23T01:44:46.795Z,100359.72
2019-05-23T01:47:17.570Z,100358.05
2019-05-23T01:49:46.354Z,100358.58
2019-05-23T01:52:15.962Z,100361.70
2019-05-23T01:54:44.230Z,100357.77
2019-05-23T01:57:12.441Z,100355.00
2019-05-23T01:59:41.112Z,100355.95
2019-05-23T02:02:10.721Z,100361.06
2019-05-23T02:04:40.027Z,100361.56
2019-05-23T02:07:09.204Z,100358.30
2019-05-23T02:09:38.011Z,100357.80
2019-05-23T02:12:09.991Z,100361.09
2019-05-23T02:14:40.108Z,100357.33
2019-05-23T02:17:10.590Z,100360.95
2019-05-23T02:19:40.804Z,100358.81
2019-05-23T02:22:09.920Z,100358.31
2019-05-23T02:24:38.480Z,100361.61
2019-05-23T02:27:09.331Z,100358.98
2019-05-23T02:29:37.892Z,100363.41
2019-05-23T02:32:06.731Z,100366.36
2019-05-23T02:34:37.224Z,100357.34
2019-05-23T02:37:11.220Z,100353.41
2019-05-23T02:39:53.975Z,100347.52
2019-05-23T02:42:39.758Z,100351.31
2019-05-23T02:45:17.903Z,100353.93
2019-05-23T02:47:48.731Z,100353.28
2019-05-23T02:50:31.696Z,100357.04
2019-05-23T02:53:02.368Z,100354.91
2019-05-23T02:55:37.756Z,100357.22
2019-05-23T02:58:32.693Z,100357.20
2019-05-23T03:01:56.403Z,100355.58
2019-05-23T03:04:28.695Z,100352.97
2019-05-23T03:07:00.759Z,100346.41
2019-05-23T03:09:33.035Z,100349.52
2019-05-23T03:12:01.640Z,100349.20
2019-05-23T03:14:33.853Z,100342.31
2019-05-23T03:17:03.000Z,100351.98
2019-05-23T03:19:51.336Z,100350.52
2019-05-23T03:22:47.677Z,100351.02
2019-05-23T03:26:26.380Z,100348.89
2019-05-23T03:28:54.982Z,100354.45
2019-05-23T03:31:48.845Z,100354.44
2019-05-23T03:34:20.882Z,100349.36
2019-05-23T03:36:49.725Z,100349.04
2019-05-23T03:39:19.272Z,100344.77
2019-05-23T03:41:48.077Z,100344.77
2019-05-23T03:44:16.825Z,100347.39
2019-05-23T03:46:47.193Z,100349.20
2019-05-23T03:49:18.849Z,100345.92
2019-05-23T03:51:47.325Z,100351.66
2019-05-23T03:54:15.620Z,100345.61
2019-05-23T03:56:44.058Z,100343.80
2019-05-23T03:59:13.688Z,100348.23
2019-05-23T04:01:48.259Z,100347.41
2019-05-23T04:04:14.693Z,100349.70
2019-05-23T04:06:43.368Z,100354.59
2019-05-23T04:09:11.539Z,100354.13
2019-05-23T04:11:39.596Z,100347.39
2019-05-23T04:14:09.573Z,100349.86
2019-05-23T04:16:38.698Z,100356.09
2019-05-23T04:19:06.776Z,100351.98
2019-05-23T04:21:36.065Z,100347.07
2019-05-23T04:24:04.893Z,100349.35
2019-05-23T04:26:32.885Z,100345.09
2019-05-23T04:29:01.301Z,100349.52
2019-05-23T04:31:29.606Z,100352.47
2019-05-23T04:33:58.075Z,100355.58
2019-05-23T04:36:26.114Z,100354.44
2019-05-23T04:38:54.287Z,100351.00
2019-05-23T04:41:22.802Z,100354.13
2019-05-23T04:43:51.914Z,100357.06
2019-05-23T04:46:20.562Z,100355.75
2019-05-23T04:48:49.389Z,100356.08
2019-05-23T04:51:19.184Z,100356.08
2019-05-23T04:53:47.317Z,100353.28
2019-05-23T04:56:15.498Z,100354.45
2019-05-23T04:58:44.014Z,100352.98
2019-05-23T05:01:15.042Z,100353.80
2019-05-23T05:03:44.911Z,100360.50
2019-05-23T05:06:14.052Z,100357.38
2019-05-23T05:08:42.196Z,100361.67
2019-05-23T05:11:11.106Z,100358.54
2019-05-23T05:13:41.045Z,100361.17
2019-05-23T05:16:09.079Z,100368.39
2019-05-23T05:18:37.560Z,100362.48
2019-05-23T05:21:05.572Z,100365.75
2019-05-23T05:23:33.708Z,100367.89
2019-05-23T05:26:02.106Z,100365.77
2019-05-23T05:28:30.339Z,100363.94
2019-05-23T05:30:58.562Z,100369.52
2019-05-23T05:33:27.145Z,100371.66
2019-05-23T05:35:55.341Z,100373.94
2019-05-23T05:38:23.868Z,100378.17
2019-05-23T05:40:51.937Z,100373.25
2019-05-23T05:43:20.162Z,100373.25
2019-05-23T05:45:48.666Z,100369.28
2019-05-23T05:48:16.703Z,100370.92
2019-05-23T05:50:45.201Z,100375.83
2019-05-23T05:53:13.904Z,100374.83
2019-05-23T05:55:42.011Z,100381.05
2019-05-23T05:58:10.151Z,100379.55
2019-05-23T06:00:59.411Z,100378.05
2019-05-23T06:03:27.992Z,100376.20
2019-05-23T06:06:12.880Z,100375.34
2019-05-23T06:08:42.814Z,100372.98
2019-05-23T06:11:11.847Z,100372.11
2019-05-23T06:13:40.666Z,100371.55
2019-05-23T06:16:08.999Z,100372.81
2019-05-23T06:18:37.432Z,100373.73
2019-05-23T06:21:06.741Z,100369.39
2019-05-23T06:23:35.706Z,100363.55
2019-05-23T06:26:03.851Z,100357.69
2019-05-23T06:28:32.353Z,100360.06
2019-05-23T06:31:01.782Z,100362.53
2019-05-23T06:33:31.046Z,100358.27
2019-05-23T06:35:59.852Z,100360.41
2019-05-23T06:38:28.452Z,100355.83
2019-05-23T06:40:57.928Z,100353.98
2019-05-23T06:43:27.303Z,100352.67
2019-05-23T06:45:55.953Z,100351.12
2019-05-23T06:48:24.479Z,100343.52
2019-05-23T06:50:52.951Z,100345.23
2019-05-23T06:53:21.052Z,100344.34
2019-05-23T06:55:49.235Z,100345.59
2019-05-23T06:58:17.330Z,100340.67
2019-05-23T07:00:46.148Z,100341.84
2019-05-23T07:03:14.721Z,100340.23
2019-05-23T07:05:43.352Z,100335.58
2019-05-23T07:08:12.086Z,100332.73
2019-05-23T07:10:41.915Z,100333.20
2019-05-23T07:13:09.970Z,100331.05
2019-05-23T07:15:38.429Z,100334.77
2019-05-23T07:18:06.813Z,100331.47
2019-05-23T07:20:34.966Z,100344.42
2019-05-23T07:23:05.792Z,100339.03
2019-05-23T07:25:34.289Z,100338.73
2019-05-23T07:28:02.335Z,100339.13
2019-05-23T07:30:30.948Z,100340.82
2019-05-23T07:32:59.339Z,100338.78
2019-05-23T07:35:27.904Z,100337.05
2019-05-23T07:37:56.729Z,100334.81
2019-05-23T07:40:26.714Z,100337.81
2019-05-23T07:42:55.639Z,100335.18
2019-05-23T07:45:29.980Z,100333.02
2019-05-23T07:48:45.944Z,100338.56
2019-05-23T07:51:13.921Z,100344.93
2019-05-23T07:54:07.042Z,100330.41
2019-05-23T07:56:36.038Z,100335.41
2019-05-23T07:59:04.625Z,100333.27
2019-05-23T08:01:34.765Z,100331.17
2019-05-23T08:12:01.303Z,100324.16
2019-05-23T08:14:29.660Z,100315.52
2019-05-23T08:16:57.546Z,100310.41
2019-05-23T08:19:25.964Z,100313.06
2019-05-23T08:21:53.647Z,100310.88
2019-05-23T08:24:21.592Z,100307.05
2019-05-23T08:26:50.736Z,100313.87
2019-05-23T08:29:25.871Z,100316.88
2019-05-23T08:31:51.989Z,100311.53
2019-05-23T08:34:19.567Z,100311.48
2019-05-23T08:36:47.434Z,100315.16
2019-05-23T08:39:15.273Z,100316.67
2019-05-23T08:41:42.829Z,100312.55
2019-05-23T08:44:11.542Z,100306.81
2019-05-23T08:46:40.208Z,100308.29
2019-05-23T08:49:08.305Z,100311.13
2019-05-23T08:51:36.934Z,100312.06
2019-05-23T08:54:05.199Z,100306.24
2019-05-23T08:56:32.839Z,100296.94
2019-05-23T08:59:00.813Z,100299.41
2019-05-23T09:01:28.644Z,100289.20
2019-05-23T09:03:58.697Z,100294.36
2019-05-23T09:06:27.043Z,100298.94
2019-05-23T09:08:55.185Z,100294.08
2019-05-23T09:11:23.666Z,100285.99
2019-05-23T09:13:51.912Z,100284.61
2019-05-23T09:16:19.893Z,100279.18
2019-05-23T09:18:47.741Z,100277.20
2019-05-23T09:21:15.449Z,100278.73
2019-05-23T09:23:43.131Z,100277.27
2019-05-23T09:26:11.126Z,100280.11
2019-05-23T09:28:38.737Z,100270.59
2019-05-23T09:31:06.755Z,100275.30
2019-05-23T09:33:34.805Z,100273.58
2019-05-23T09:36:02.861Z,100271.36
2019-05-23T09:38:30.586Z,100265.88
2019-05-23T09:40:58.716Z,100263.60
2019-05-23T09:43:26.320Z,100264.52
2019-05-23T09:45:53.838Z,100262.98
2019-05-23T09:48:22.818Z,100264.97
2019-05-23T09:50:50.834Z,100262.09
2019-05-23T09:53:20.511Z,100253.48
2019-05-23T09:55:48.114Z,100255.39
2019-05-23T09:58:15.773Z,100251.35
2019-05-23T10:00:43.406Z,100257.61
2019-05-23T10:03:11.540Z,100252.50
2019-05-23T10:05:43.628Z,100252.01
2019-05-23T10:08:09.007Z,100255.23
2019-05-23T10:10:37.293Z,100251.75
2019-05-23T10:13:05.007Z,100236.62
2019-05-23T10:15:51.796Z,100236.09
2019-05-23T10:18:20.783Z,100241.75
2019-05-23T10:20:48.399Z,100230.86
2019-05-23T10:23:16.135Z,100229.72
2019-05-23T10:25:44.482Z,100224.53
2019-05-23T10:28:12.349Z,100220.73
2019-05-23T10:30:40.492Z,100224.98
2019-05-23T10:33:11.896Z,100224.44
2019-05-23T10:35:38.593Z,100221.01
2019-05-23T10:38:06.485Z,100218.73
2019-05-23T10:40:34.359Z,100216.50
2019-05-23T10:43:02.250Z,100205.34
2019-05-23T10:45:30.019Z,100212.23
2019-05-23T10:47:57.711Z,100203.78
2019-05-23T10:50:25.415Z,100206.93
2019-05-23T10:52:53.000Z,100201.54
2019-05-23T10:55:22.415Z,100204.08
2019-05-23T10:57:50.162Z,100198.07
2019-05-23T11:00:21.282Z,100203.39
2019-05-23T11:02:49.768Z,100199.47
2019-05-23T11:05:18.036Z,100200.20
2019-05-23T11:07:45.966Z,100192.92
2019-05-23T11:10:15.352Z,100194.91
2019-05-23T11:12:43.155Z,100183.98
2019-05-23T11:15:14.516Z,100192.84
2019-05-23T11:17:42.165Z,100189.33
2019-05-23T11:20:12.024Z,100194.76
2019-05-23T11:22:40.205Z,100185.43
2019-05-23T11:25:11.066Z,100187.11
2019-05-23T11:27:38.738Z,100185.98
2019-05-23T11:30:10.371Z,100174.95
2019-05-23T11:32:38.044Z,100175.14
2019-05-23T11:35:06.119Z,100165.05
2019-05-23T11:37:34.308Z,100171.36
2019-05-23T11:40:02.344Z,100163.67
2019-05-23T11:42:29.962Z,100159.73
2019-05-23T11:44:57.701Z,100156.22
2019-05-23T11:47:25.970Z,100148.75
2019-05-23T11:49:53.742Z,100150.38
2019-05-23T11:52:21.627Z,100147.22
2019-05-23T11:54:49.468Z,100144.56
2019-05-23T11:57:17.496Z,100135.78
2019-05-23T11:59:45.104Z,100129.83
2019-05-23T12:02:22.655Z,100138.55
2019-05-23T12:04:50.841Z,100139.46
2019-05-23T12:07:26.755Z,100137.23
2019-05-23T12:09:54.427Z,100138.44
2019-05-23T12:12:22.531Z,100132.94
2019-05-23T12:14:49.920Z,100131.76
2019-05-23T12:17:22.608Z,100127.21
2019-05-23T12:19:50.083Z,100124.72
2019-05-23T12:22:18.120Z,100113.04
2019-05-23T12:24:45.952Z,100115.99
2019-05-23T12:27:14.013Z,100111.45
2019-05-23T12:29:42.098Z,100115.06
2019-05-23T12:32:11.928Z,100108.73
2019-05-23T12:34:39.604Z,100097.96
2019-05-23T12:37:19.030Z,100095.96
2019-05-23T12:39:36.767Z,100100.97
2019-05-23T12:42:04.594Z,100095.22
2019-05-23T12:44:32.065Z,100090.75
2019-05-23T12:47:00.548Z,100096.19
2019-05-23T12:49:33.394Z,100088.48
2019-05-23T12:52:01.413Z,100084.89
2019-05-23T12:54:30.085Z,100080.89
2019-05-23T12:56:57.923Z,100082.37
2019-05-23T12:59:26.000Z,100075.90
2019-05-23T13:01:55.740Z,100074.31
2019-05-23T13:04:24.712Z,100070.91
2019-05-23T13:06:52.922Z,100078.18
2019-05-23T13:09:21.759Z,100072.50
2019-05-23T13:11:49.521Z,100074.08
2019-05-23T13:14:18.977Z,100070.05
2019-05-23T13:16:46.936Z,100075.59
2019-05-23T13:19:15.139Z,100063.07
2019-05-23T13:21:42.851Z,100067.90
2019-05-23T13:24:10.819Z,100063.20
2019-05-23T13:26:39.127Z,100067.84
2019-05-23T13:29:07.816Z,100067.62
2019-05-23T13:31:35.677Z,100061.79
2019-05-23T13:34:03.633Z,100057.35
2019-05-23T13:36:31.359Z,100056.73
2019-05-23T13:38:59.154Z,100055.47
2019-05-23T13:41:26.856Z,100049.27
2019-05-23T13:43:55.420Z,100048.98
2019-05-23T13:46:23.575Z,100049.33
2019-05-23T13:48:51.400Z,100042.89
2019-05-23T13:51:18.863Z,100035.54
2019-05-23T13:53:46.413Z,100039.95
2019-05-23T13:56:14.242Z,100038.91
2019-05-23T13:58:43.068Z,100038.23
2019-05-23T14:01:11.598Z,100042.88
2019-05-23T14:03:39.770Z,100037.83
2019-05-23T14:06:07.485Z,100033.68
2019-05-23T14:08:35.311Z,100022.50
2019-05-23T14:11:03.467Z,100026.80
2019-05-23T14:13:31.862Z,100024.39
2019-05-23T14:16:00.476Z,100025.28
2019-05-23T14:18:29.613Z,100023.42
2019-05-23T14:21:36.406Z,100023.57
2019-05-23T14:24:05.287Z,100016.42
2019-05-23T14:26:39.185Z,100012.01
2019-05-23T14:29:06.870Z,100011.72
2019-05-23T14:31:41.131Z,100011.47
2019-05-23T14:34:12.206Z,100009.87
2019-05-23T14:37:09.364Z,100010.78
2019-05-23T14:39:45.172Z,100002.50
2019-05-23T14:42:31.122Z,99995.55
2019-05-23T14:44:59.265Z,100000.48
2019-05-23T14:47:41.394Z,99997.11
2019-05-23T14:50:26.064Z,99999.04
2019-05-23T14:52:54.749Z,99990.72
2019-05-23T14:55:24.030Z,99984.52
2019-05-23T14:57:53.325Z,99985.31
2019-05-23T15:00:24.401Z,99986.91
2019-05-23T15:02:52.032Z,99989.62
2019-05-23T15:05:20.055Z,99990.43
2019-05-23T15:07:47.753Z,99990.18
2019-05-23T15:10:17.051Z,99979.12
2019-05-23T15:12:45.126Z,99974.61
2019-05-23T15:15:13.425Z,99977.36
2019-05-23T15:17:40.896Z,99976.63
2019-05-23T15:20:09.858Z,99976.34
2019-05-23T15:22:37.426Z,99973.36
2019-05-23T15:25:06.017Z,99976.30
2019-05-23T15:27:33.798Z,99970.64
2019-05-23T15:30:01.617Z,99977.59
2019-05-23T15:32:30.564Z,99968.08
2019-05-23T15:34:58.143Z,99966.66
2019-05-23T15:37:25.802Z,99976.02
2019-05-23T15:39:53.669Z,99965.38
2019-05-23T15:42:22.034Z,99966.33
2019-05-23T15:44:50.068Z,99966.98
2019-05-23T15:47:20.059Z,99963.30
2019-05-23T15:49:50.080Z,99966.34
2019-05-23T15:52:29.678Z,99959.97
2019-05-23T15:55:03.170Z,99962.45
2019-05-23T15:57:42.240Z,99959.84
2019-05-23T16:00:21.471Z,99962.61
2019-05-23T16:03:01.489Z,99963.98
2019-05-23T16:05:30.494Z,99963.77
2019-05-23T16:07:58.537Z,99959.20
2019-05-23T16:10:26.629Z,99954.69
2019-05-23T16:12:54.860Z,99953.38
2019-05-23T16:15:25.685Z,99961.75
2019-05-23T16:17:53.242Z,99950.48
2019-05-23T16:20:21.349Z,99948.91
2019-05-23T16:22:49.144Z,99940.08
2019-05-23T16:25:17.367Z,99943.80
2019-05-23T16:27:45.478Z,99935.50
2019-05-23T16:30:13.467Z,99934.71
2019-05-23T16:32:41.420Z,99938.75
2019-05-23T16:35:37.743Z,99930.98
2019-05-23T16:38:11.382Z,99932.59
2019-05-23T16:40:42.432Z,99935.84
2019-05-23T16:43:10.303Z,99932.63
2019-05-23T16:45:37.992Z,99928.58
2019-05-23T16:48:07.019Z,99925.08
2019-05-23T16:50:34.974Z,99924.80
2019-05-23T16:53:02.641Z,99918.09
2019-05-23T16:55:39.992Z,99916.77
2019-05-23T16:58:19.069Z,99917.53
2019-05-23T17:01:24.035Z,99919.43
2019-05-23T17:03:57.737Z,99913.77
2019-05-23T17:06:46.788Z,99908.94
2019-05-23T17:09:31.897Z,99914.02
2019-05-23T17:12:19.546Z,99912.69
2019-05-23T17:15:09.811Z,99918.56
2019-05-23T17:18:12.322Z,99911.81
2019-05-23T17:20:57.244Z,99914.20
2019-05-23T17:23:44.778Z,99911.50
2019-05-23T17:26:36.081Z,99903.45
2019-05-23T17:29:10.216Z,99908.23
2019-05-23T17:31:39.041Z,99911.99
2019-05-23T17:34:07.264Z,99907.41
2019-05-23T17:36:35.072Z,99907.38
2019-05-23T17:39:04.842Z,99905.48
2019-05-23T17:41:32.315Z,99912.41
2019-05-23T17:44:00.187Z,99905.45
2019-05-23T17:46:27.852Z,99904.08
2019-05-23T17:48:55.659Z,99903.74
2019-05-23T17:51:26.523Z,99916.81
2019-05-23T17:53:55.117Z,99914.10
2019-05-23T17:56:23.310Z,99916.50
2019-05-23T17:58:50.955Z,99914.59
2019-05-23T18:01:19.377Z,99917.75
2019-05-23T18:03:46.912Z,99912.09
2019-05-23T18:06:14.828Z,99919.58
2019-05-23T18:08:43.001Z,99915.25
2019-05-23T18:11:11.068Z,99910.39
2019-05-23T18:14:43.572Z,99910.92
2019-05-23T18:17:13.513Z,99912.17
2019-05-23T18:19:41.780Z,99919.11
2019-05-23T18:22:12.251Z,99915.59
2019-05-23T18:24:40.636Z,99917.68
2019-05-23T18:27:12.907Z,99915.50
2019-05-23T18:29:41.640Z,99914.95
2019-05-23T18:32:15.647Z,99918.09
2019-05-23T18:34:44.034Z,99919.91
2019-05-23T18:37:12.302Z,99920.64
2019-05-23T18:39:40.431Z,99922.19
2019-05-23T18:42:08.619Z,99922.13
2019-05-23T18:44:37.999Z,99924.73
2019-05-23T18:47:11.390Z,99927.38
2019-05-23T18:49:39.465Z,99927.31
2019-05-23T18:52:07.983Z,99929.12
2019-05-23T18:54:36.332Z,99925.84
2019-05-23T18:57:04.757Z,99936.45
2019-05-23T18:59:34.734Z,99936.88
2019-05-23T19:02:05.304Z,99938.41
2019-05-23T19:04:33.449Z,99940.45
2019-05-23T19:07:02.842Z,99942.50
2019-05-23T19:09:31.510Z,99942.68
2019-05-23T19:11:59.613Z,99945.00
2019-05-23T19:14:27.902Z,99945.17
2019-05-23T19:16:57.199Z,99940.80
2019-05-23T19:19:27.353Z,99946.02
2019-05-23T19:21:55.626Z,99952.58
2019-05-23T19:24:23.838Z,99945.77
2019-05-23T19:26:52.494Z,99944.86
2019-05-23T19:29:21.569Z,99946.58
2019-05-23T19:31:50.210Z,99949.65
2019-05-23T19:34:18.595Z,99954.05
2019-05-23T19:36:47.041Z,99950.73
2019-05-23T19:39:16.414Z,99948.20
2019-05-23T19:41:44.844Z,99952.34
2019-05-23T19:44:13.453Z,99953.02
2019-05-23T19:46:41.871Z,99949.17
2019-05-23T19:49:10.900Z,99944.80
2019-05-23T19:51:40.193Z,99951.05
2019-05-23T19:54:08.416Z,99954.66
2019-05-23T19:56:37.637Z,99957.22
2019-05-23T19:59:05.669Z,99948.03
2019-05-23T20:01:45.518Z,99949.78
2019-05-23T20:04:14.817Z,99949.11
2019-05-23T20:06:43.341Z,99947.36
2019-05-23T20:09:15.354Z,99951.48
2019-05-23T20:11:53.765Z,99946.53
2019-05-23T20:14:13.435Z,99947.98
2019-05-23T20:16:41.837Z,99944.86
2019-05-23T20:19:10.998Z,99942.81
2019-05-23T20:21:39.052Z,99938.95
2019-05-23T20:24:07.241Z,99941.72
2019-05-23T20:26:35.315Z,99941.35
2019-05-23T20:29:03.624Z,99934.51
2019-05-23T20:31:32.396Z,99939.49
2019-05-23T20:34:00.750Z,99939.37
2019-05-23T20:36:28.767Z,99940.24
2019-05-23T20:38:56.861Z,99946.72
2019-05-23T20:41:28.809Z,99943.56
2019-05-23T20:43:56.915Z,99940.73
2019-05-23T20:46:25.413Z,99938.70
2019-05-23T20:48:53.540Z,99944.11
2019-05-23T20:51:21.663Z,99938.81
2019-05-23T20:53:50.355Z,99946.30
2019-05-23T20:56:18.361Z,99945.59
2019-05-23T20:58:46.450Z,99945.40
2019-05-23T21:01:19.676Z,99945.69
2019-05-23T21:03:48.661Z,99944.73
2019-05-23T21:06:17.011Z,99945.34
2019-05-23T21:08:45.119Z,99947.28
2019-05-23T21:11:13.405Z,99951.05
2019-05-23T21:13:43.029Z,99954.02
2019-05-23T21:16:11.113Z,99953.05
2019-05-23T21:18:39.561Z,99957.59
2019-05-23T21:21:07.514Z,99958.48
2019-05-23T21:23:35.901Z,99950.89
2019-05-23T21:26:06.883Z,99954.74
2019-05-23T21:28:35.654Z,99954.30
2019-05-23T21:31:07.070Z,99954.66
2019-05-23T21:33:35.492Z,99954.78
2019-05-23T21:36:03.789Z,99954.33
2019-05-23T21:38:32.039Z,99954.49
2019-05-23T21:41:03.199Z,99958.59
2019-05-23T21:43:30.289Z,99956.30
2019-05-23T21:45:58.783Z,99956.88
2019-05-23T21:48:26.923Z,99956.42
2019-05-23T21:50:55.403Z,99957.80
2019-05-23T21:53:23.754Z,99957.66
2019-05-23T21:55:51.886Z,99960.66
2019-05-23T21:58:19.939Z,99959.97
2019-05-23T22:01:30.105Z,99957.95
2019-05-23T22:04:09.452Z,99955.13
2019-05-23T22:06:39.000Z,99952.36
2019-05-23T22:09:10.068Z,99956.30
2019-05-23T22:11:38.538Z,99953.48
2019-05-23T22:14:07.829Z,99958.89
2019-05-23T22:16:36.476Z,99950.06
2019-05-23T22:19:07.129Z,99953.63
2019-05-23T22:21:35.408Z,99949.07
2019-05-23T22:24:04.408Z,99951.64
2019-05-23T22:26:33.854Z,99951.53
2019-05-23T22:29:02.711Z,99944.55
2019-05-23T22:31:31.342Z,99947.02
2019-05-23T22:34:31.150Z,99945.13
2019-05-23T22:37:00.912Z,99942.84
2019-05-23T22:39:30.133Z,99941.49
2019-05-23T22:41:58.556Z,99942.05
2019-05-23T22:44:27.482Z,99942.58
2019-05-23T22:46:55.791Z,99940.63
2019-05-23T22:49:23.833Z,99941.06
2019-05-23T22:51:53.191Z,99943.70
2019-05-23T22:54:22.328Z,99940.47
2019-05-23T22:56:50.472Z,99944.53
2019-05-23T22:59:20.162Z,99941.08
2019-05-23T23:01:48.547Z,99939.64
2019-05-23T23:04:17.751Z,99936.62
2019-05-23T23:06:45.921Z,99931.94
2019-05-23T23:09:14.137Z,99937.87
2019-05-23T23:11:42.237Z,99935.32
2019-05-23T23:14:11.491Z,99933.11
2019-05-23T23:16:39.883Z,99932.39
2019-05-23T23:19:08.444Z,99934.62
2019-05-23T23:21:36.817Z,99937.08
2019-05-23T23:24:05.163Z,99939.61
2019-05-23T23:26:33.638Z,99939.01
2019-05-23T23:29:01.786Z,99933.94
2019-05-23T23:31:30.271Z,99928.84
2019-05-23T23:33:59.928Z,99925.00
2019-05-23T23:36:28.121Z,99927.52
2019-05-23T23:38:56.356Z,99929.05
2019-05-23T23:41:24.664Z,99926.83
2019-05-23T23:43:59.143Z,99924.91
2019-05-23T23:46:40.894Z,99925.09
2019-05-23T23:49:27.655Z,99926.92
2019-05-23T23:52:15.988Z,99924.16
2019-05-23T23:55:02.512Z,99919.48
2019-05-23T23:57:50.285Z,99921.73
